createdAt,value
2023-05-10T00:01:08.616Z,16.79
2023-05-10T00:03:36.752Z,16.82
2023-05-10T00:06:05.014Z,16.75
2023-05-10T00:08:32.908Z,16.73
2023-05-10T00:11:02.601Z,16.67
2023-05-10T00:13:30.603Z,16.68
2023-05-10T00:15:58.536Z,16.66
2023-05-10T00:18:26.788Z,16.63
2023-05-10T00:20:54.714Z,16.66
2023-05-10T00:23:22.601Z,16.66
2023-05-10T00:25:50.526Z,16.65
2023-05-10T00:28:19.898Z,16.65
2023-05-10T00:30:47.810Z,16.65
2023-05-10T00:33:15.765Z,16.67
2023-05-10T00:35:43.872Z,16.72
2023-05-10T00:38:11.959Z,16.76
2023-05-10T00:40:40.084Z,16.74
2023-05-10T00:43:13.432Z,16.77
2023-05-10T00:45:42.922Z,16.75
2023-05-10T00:48:11.125Z,16.75
2023-05-10T00:50:39.759Z,16.74
2023-05-10T00:53:07.968Z,16.77
2023-05-10T00:55:35.846Z,16.77
2023-05-10T00:58:03.829Z,16.74
2023-05-10T01:00:31.762Z,16.78
2023-05-10T01:03:02.004Z,16.75
2023-05-10T01:05:30.030Z,16.76
2023-05-10T01:07:59.183Z,16.83
2023-05-10T01:10:27.131Z,16.84
2023-05-10T01:12:55.092Z,16.83
2023-05-10T01:15:23.354Z,16.81
2023-05-10T01:17:51.265Z,16.81
2023-05-10T01:20:20.833Z,16.79
2023-05-10T01:23:33.367Z,16.82
2023-05-10T01:26:17.009Z,16.78
2023-05-10T01:29:13.820Z,16.81
2023-05-10T01:32:08.217Z,16.83
2023-05-10T01:34:37.741Z,16.83
2023-05-10T01:37:08.307Z,16.81
2023-05-10T01:39:40.720Z,16.81
2023-05-10T01:42:10.350Z,16.82
2023-05-10T01:44:41.318Z,16.78
2023-05-10T01:47:13.882Z,16.73
2023-05-10T01:49:43.943Z,16.77
2023-05-10T01:52:12.985Z,16.73
2023-05-10T01:54:41.086Z,16.76
2023-05-10T01:57:10.132Z,16.78
2023-05-10T01:59:41.618Z,16.80
2023-05-10T02:02:12.868Z,16.79
2023-05-10T02:04:41.670Z,16.83
2023-05-10T02:07:09.879Z,16.84
2023-05-10T02:09:37.910Z,16.86
2023-05-10T02:12:07.121Z,16.88
2023-05-10T02:14:36.661Z,16.89
2023-05-10T02:17:07.049Z,16.87
2023-05-10T02:19:36.435Z,16.83
2023-05-10T02:22:04.567Z,16.89
2023-05-10T02:24:34.120Z,16.88
2023-05-10T02:27:02.353Z,16.89
2023-05-10T02:29:30.324Z,16.90
2023-05-10T02:31:58.504Z,16.89
2023-05-10T02:34:27.411Z,16.92
2023-05-10T02:36:57.116Z,16.82
2023-05-10T02:39:25.332Z,16.85
2023-05-10T02:41:53.236Z,16.90
2023-05-10T02:44:21.545Z,16.76
2023-05-10T02:46:49.592Z,16.85
2023-05-10T02:49:17.693Z,16.85
2023-05-10T02:51:47.258Z,16.88
2023-05-10T02:54:19.792Z,16.84
2023-05-10T02:56:49.804Z,16.78
2023-05-10T02:59:17.715Z,16.83
2023-05-10T03:01:45.994Z,16.84
2023-05-10T03:04:14.389Z,16.88
2023-05-10T03:06:43.520Z,16.89
2023-05-10T03:09:12.162Z,16.91
2023-05-10T03:11:49.675Z,16.86
2023-05-10T03:14:23.663Z,16.86
2023-05-10T03:16:55.410Z,16.84
2023-05-10T03:19:26.901Z,16.88
2023-05-10T03:21:55.239Z,16.88
2023-05-10T03:24:24.313Z,16.87
2023-05-10T03:26:53.752Z,16.85
2023-05-10T03:29:21.766Z,16.87
2023-05-10T03:31:49.879Z,16.89
2023-05-10T03:34:18.401Z,16.85
2023-05-10T03:36:46.379Z,16.81
2023-05-10T03:39:14.421Z,16.89
2023-05-10T03:41:43.618Z,16.89
2023-05-10T03:44:13.050Z,16.90
2023-05-10T03:46:41.007Z,16.88
2023-05-10T03:49:08.954Z,16.90
2023-05-10T03:51:38.297Z,16.85
2023-05-10T03:54:06.416Z,16.89
2023-05-10T03:56:34.760Z,16.86
2023-05-10T03:59:02.661Z,16.89
2023-05-10T04:01:33.879Z,16.91
2023-05-10T04:04:02.188Z,16.94
2023-05-10T04:06:33.047Z,16.95
2023-05-10T04:09:04.932Z,16.88
2023-05-10T04:11:32.945Z,16.88
2023-05-10T04:14:00.838Z,16.84
2023-05-10T04:16:28.848Z,16.79
2023-05-10T04:18:58.398Z,16.75
2023-05-10T04:21:26.494Z,16.75
2023-05-10T04:23:54.388Z,16.72
2023-05-10T04:26:23.051Z,16.72
2023-05-10T04:28:50.949Z,16.68
2023-05-10T04:31:18.928Z,16.61
2023-05-10T04:33:46.902Z,16.57
2023-05-10T04:36:16.323Z,16.59
2023-05-10T04:38:44.796Z,16.54
2023-05-10T04:41:12.906Z,16.47
2023-05-10T04:43:40.825Z,16.57
2023-05-10T04:46:08.992Z,16.56
2023-05-10T04:48:36.976Z,16.59
2023-05-10T04:51:05.808Z,16.53
2023-05-10T04:53:35.460Z,16.53
2023-05-10T04:56:03.391Z,16.58
2023-05-10T04:58:31.440Z,16.62
2023-05-10T05:00:59.436Z,16.60
2023-05-10T05:03:27.522Z,16.63
2023-05-10T05:05:55.505Z,16.66
2023-05-10T05:08:23.834Z,16.68
2023-05-10T05:10:53.160Z,16.66
2023-05-10T05:13:21.212Z,16.66
2023-05-10T05:15:49.217Z,16.67
2023-05-10T05:18:17.245Z,16.72
2023-05-10T05:20:45.215Z,16.73
2023-05-10T05:23:13.193Z,16.71
2023-05-10T05:25:41.171Z,16.76
2023-05-10T05:28:10.691Z,16.68
2023-05-10T05:30:38.620Z,16.67
2023-05-10T05:33:06.572Z,16.70
2023-05-10T05:35:34.553Z,16.56
2023-05-10T05:38:02.564Z,16.61
2023-05-10T05:40:30.453Z,16.57
2023-05-10T05:42:58.513Z,16.61
2023-05-10T05:45:27.773Z,16.63
2023-05-10T05:47:55.995Z,16.69
2023-05-10T05:50:23.933Z,16.71
2023-05-10T05:52:52.109Z,16.72
2023-05-10T05:55:20.176Z,16.77
2023-05-10T05:57:48.248Z,16.82
2023-05-10T06:00:17.122Z,16.77
2023-05-10T06:02:48.386Z,16.75
2023-05-10T06:05:16.983Z,16.85
2023-05-10T06:07:45.015Z,16.90
2023-05-10T06:10:12.992Z,16.88
2023-05-10T06:12:40.908Z,16.93
2023-05-10T06:15:10.244Z,17.00
2023-05-10T06:17:39.877Z,17.02
2023-05-10T06:20:10.764Z,17.06
2023-05-10T06:22:38.793Z,17.13
2023-05-10T06:25:07.673Z,17.18
2023-05-10T06:27:35.620Z,17.19
2023-05-10T06:30:12.355Z,17.22
2023-05-10T06:32:41.531Z,17.23
2023-05-10T06:35:11.517Z,17.34
2023-05-10T06:37:39.461Z,17.32
2023-05-10T06:40:08.984Z,17.33
2023-05-10T06:42:36.936Z,17.44
2023-05-10T06:45:06.341Z,17.46
2023-05-10T06:47:36.473Z,17.47
2023-05-10T06:50:06.986Z,17.42
2023-05-10T06:52:36.310Z,17.48
2023-05-10T06:55:04.604Z,17.56
2023-05-10T06:57:32.525Z,17.56
2023-05-10T07:00:00.706Z,17.44
2023-05-10T07:02:28.732Z,17.54
2023-05-10T07:04:56.821Z,17.52
2023-05-10T07:07:25.547Z,17.50
2023-05-10T07:09:55.117Z,17.49
2023-05-10T07:12:23.075Z,17.52
2023-05-10T07:14:51.203Z,17.60
2023-05-10T07:17:19.239Z,17.52
2023-05-10T07:19:47.326Z,17.55
2023-05-10T07:22:15.401Z,17.60
2023-05-10T07:24:43.599Z,17.60
2023-05-10T07:27:13.877Z,17.60
2023-05-10T07:29:41.921Z,17.64
2023-05-10T07:32:09.972Z,17.61
2023-05-10T07:34:38.052Z,17.53
2023-05-10T07:37:07.178Z,17.68
2023-05-10T07:39:35.297Z,17.73
2023-05-10T07:42:06.709Z,17.70
2023-05-10T07:44:36.166Z,17.75
2023-05-10T07:47:04.159Z,17.80
2023-05-10T07:49:32.274Z,17.80
2023-05-10T07:52:00.404Z,17.83
2023-05-10T07:54:30.195Z,17.78
2023-05-10T07:56:58.314Z,17.85
2023-05-10T07:59:26.261Z,17.84
2023-05-10T08:01:57.215Z,17.85
2023-05-10T08:04:25.653Z,17.82
2023-05-10T08:06:53.614Z,17.82
2023-05-10T08:09:25.270Z,17.89
2023-05-10T08:11:53.796Z,17.89
2023-05-10T08:14:21.837Z,17.78
2023-05-10T08:16:49.897Z,17.86
2023-05-10T08:19:20.923Z,17.93
2023-05-10T08:21:49.162Z,18.01
2023-05-10T08:24:17.558Z,18.08
2023-05-10T08:26:45.574Z,17.92
2023-05-10T08:29:13.484Z,18.15
2023-05-10T08:31:41.538Z,18.22
2023-05-10T08:34:09.723Z,18.24
2023-05-10T08:36:39.048Z,18.42
2023-05-10T08:39:13.487Z,18.52
2023-05-10T08:41:47.830Z,18.55
2023-05-10T08:44:15.921Z,18.59
2023-05-10T08:46:45.170Z,18.69
2023-05-10T08:49:13.256Z,18.71
2023-05-10T08:51:43.904Z,18.74
2023-05-10T08:54:11.928Z,18.60
2023-05-10T08:56:39.878Z,18.51
2023-05-10T08:59:08.015Z,18.48
2023-05-10T09:01:35.974Z,18.29
2023-05-10T09:04:04.068Z,18.16
2023-05-10T09:06:33.190Z,18.20
2023-05-10T09:09:02.610Z,18.35
2023-05-10T09:11:31.240Z,18.43
2023-05-10T09:13:59.220Z,18.37
2023-05-10T09:16:27.354Z,18.41
2023-05-10T09:18:56.452Z,18.44
2023-05-10T09:21:25.379Z,18.44
2023-05-10T09:23:56.113Z,18.45
2023-05-10T09:26:29.141Z,18.62
2023-05-10T09:28:59.298Z,18.69
2023-05-10T09:31:27.917Z,18.73
2023-05-10T09:33:56.207Z,18.79
2023-05-10T09:36:24.177Z,18.60
2023-05-10T09:38:53.840Z,18.61
2023-05-10T09:41:23.573Z,18.75
2023-05-10T09:43:53.252Z,18.95
2023-05-10T09:46:21.426Z,18.73
2023-05-10T09:48:50.427Z,19.00
2023-05-10T09:51:21.611Z,18.91
2023-05-10T09:53:51.591Z,19.01
2023-05-10T09:56:37.044Z,19.11
2023-05-10T09:59:06.593Z,19.14
2023-05-10T10:01:36.142Z,19.02
2023-05-10T10:04:05.805Z,19.13
2023-05-10T10:06:37.914Z,19.05
2023-05-10T10:09:08.960Z,19.16
2023-05-10T10:11:42.891Z,19.22
2023-05-10T10:14:13.809Z,19.34
2023-05-10T10:16:55.502Z,19.35
2023-05-10T10:19:32.425Z,19.36
2023-05-10T10:22:01.231Z,19.27
2023-05-10T10:24:32.545Z,19.22
2023-05-10T10:27:06.692Z,19.24
2023-05-10T10:29:37.842Z,19.13
2023-05-10T10:32:09.059Z,19.26
2023-05-10T10:34:38.052Z,19.27
2023-05-10T10:37:06.413Z,19.20
2023-05-10T10:39:38.024Z,19.19
2023-05-10T10:42:06.457Z,19.26
2023-05-10T10:44:40.298Z,19.25
2023-05-10T10:47:30.697Z,19.38
2023-05-10T10:50:05.677Z,19.38
2023-05-10T10:52:34.775Z,19.56
2023-05-10T14:53:47.789Z,20.03
2023-05-10T14:56:19.146Z,20.37
2023-05-10T14:59:05.564Z,20.42
2023-05-10T15:01:50.481Z,20.46
2023-05-10T15:04:28.845Z,20.51
2023-05-10T15:07:22.614Z,20.41
2023-05-10T15:09:58.054Z,20.26
2023-05-10T15:12:40.790Z,20.09
2023-05-10T15:15:16.850Z,19.85
2023-05-10T15:17:52.318Z,19.83
2023-05-10T15:20:31.286Z,19.86
2023-05-10T15:23:15.753Z,20.00
2023-05-10T15:26:02.147Z,19.91
2023-05-10T15:28:50.536Z,19.72
2023-05-10T15:31:28.179Z,19.52
2023-05-10T15:34:06.013Z,19.49
2023-05-10T15:36:49.120Z,19.23
2023-05-10T15:39:20.818Z,19.28
2023-05-10T15:42:04.424Z,19.18
2023-05-10T15:44:41.718Z,19.25
2023-05-10T15:47:20.627Z,19.27
2023-05-10T15:49:50.119Z,19.29
2023-05-10T15:52:21.097Z,19.39
2023-05-10T15:54:56.024Z,19.42
2023-05-10T15:57:31.858Z,19.29
2023-05-10T16:00:01.034Z,19.28
2023-05-10T16:03:09.769Z,19.30
2023-05-10T16:05:40.502Z,19.27
2023-05-10T16:08:17.221Z,19.43
2023-05-10T16:11:01.023Z,19.45
2023-05-10T16:13:51.834Z,19.49
2023-05-10T16:16:23.518Z,19.55
2023-05-10T16:18:56.509Z,19.50
2023-05-10T16:21:30.592Z,19.69
2023-05-10T16:24:03.573Z,20.39
2023-05-10T16:26:43.724Z,20.71
2023-05-10T16:29:13.926Z,20.87
2023-05-10T16:31:49.585Z,21.15
2023-05-10T16:34:29.907Z,21.33
2023-05-10T16:37:20.555Z,21.41
2023-05-10T16:39:52.723Z,21.58
2023-05-10T16:42:30.530Z,21.41
2023-05-10T16:45:20.555Z,21.73
2023-05-10T16:47:50.767Z,21.94
2023-05-10T16:50:27.826Z,21.66
2023-05-10T16:53:12.035Z,21.52
2023-05-10T16:55:47.706Z,21.53
2023-05-10T16:58:28.566Z,21.64
2023-05-10T17:01:15.739Z,21.56
2023-05-10T17:03:49.736Z,21.59
2023-05-10T17:06:23.889Z,21.59
2023-05-10T17:08:55.645Z,21.42
2023-05-10T17:11:26.177Z,21.70
2023-05-10T17:14:10.473Z,21.54
2023-05-10T17:16:57.486Z,21.55
2023-05-10T17:22:22.622Z,21.30
2023-05-10T17:25:12.023Z,21.14
2023-05-10T17:27:45.471Z,20.46
2023-05-10T17:30:20.595Z,19.96
2023-05-10T17:33:03.607Z,19.54
2023-05-10T17:35:40.533Z,19.26
2023-05-10T17:38:12.330Z,18.99
2023-05-10T17:40:49.569Z,18.85
2023-05-10T17:43:22.589Z,18.71
2023-05-10T17:45:53.319Z,18.69
2023-05-10T17:48:30.956Z,18.61
2023-05-10T17:51:20.547Z,18.54
2023-05-10T17:53:58.653Z,18.57
2023-05-10T17:56:52.479Z,18.65
2023-05-10T17:59:31.022Z,18.60
2023-05-10T18:02:08.859Z,18.54
2023-05-10T18:04:52.597Z,18.54
2023-05-10T18:07:40.105Z,18.55
2023-05-10T18:10:25.628Z,18.44
2023-05-10T18:13:09.615Z,18.40
2023-05-10T18:15:47.939Z,18.30
2023-05-10T18:18:25.550Z,18.33
2023-05-10T18:21:20.535Z,18.22
2023-05-10T18:23:52.071Z,18.24
2023-05-10T18:26:30.693Z,18.19
2023-05-10T18:29:18.374Z,18.04
2023-05-10T18:31:49.751Z,18.10
2023-05-10T18:34:26.967Z,18.08
2023-05-10T18:37:00.876Z,17.91
2023-05-10T18:39:51.116Z,17.99
2023-05-10T18:45:29.705Z,17.89
2023-05-10T18:48:17.422Z,17.82
2023-05-10T18:50:54.798Z,17.86
2023-05-10T18:53:26.090Z,17.77
2023-05-10T18:56:14.086Z,17.69
2023-05-10T18:58:53.445Z,17.66
2023-05-10T19:04:25.267Z,17.71
2023-05-10T19:07:09.678Z,17.68
2023-05-10T19:09:57.555Z,17.70
2023-05-10T19:12:33.869Z,17.73
2023-05-10T19:15:03.343Z,17.78
2023-05-10T19:17:38.851Z,17.82
2023-05-10T19:20:20.548Z,17.76
2023-05-10T19:25:29.676Z,17.70
2023-05-10T19:28:05.440Z,17.66
2023-05-10T19:31:12.362Z,17.66
2023-05-10T19:33:50.452Z,17.63
2023-05-10T19:36:19.810Z,17.61
2023-05-10T19:38:54.144Z,17.62
2023-05-10T19:41:44.487Z,17.52
2023-05-10T19:44:14.092Z,17.55
2023-05-10T19:49:50.533Z,17.44
2023-05-10T19:52:29.654Z,17.45
2023-05-10T19:55:43.994Z,17.37
2023-05-10T19:58:29.871Z,17.43
2023-05-10T20:01:09.854Z,17.39
2023-05-10T20:03:49.692Z,17.37
2023-05-10T20:06:29.812Z,17.41
2023-05-10T20:09:06.274Z,17.39
2023-05-10T20:11:57.084Z,17.34
2023-05-10T20:14:50.961Z,17.32
2023-05-10T20:17:48.725Z,17.36
2023-05-10T20:20:26.754Z,17.35
2023-05-10T20:23:07.681Z,17.36
2023-05-10T20:25:49.762Z,17.36
2023-05-10T20:28:43.884Z,17.35
2023-05-10T20:31:30.724Z,17.35
2023-05-10T20:37:09.872Z,17.30
2023-05-10T20:40:15.959Z,17.32
2023-05-10T20:43:02.473Z,17.24
2023-05-10T20:45:39.823Z,17.20
2023-05-10T20:48:22.548Z,17.16
2023-05-10T20:51:12.350Z,17.20
2023-05-10T20:53:50.519Z,17.21
2023-05-10T20:56:30.583Z,17.24
2023-05-10T20:59:29.877Z,17.24
2023-05-10T21:02:10.030Z,17.30
2023-05-10T21:05:00.457Z,17.28
2023-05-10T21:07:49.005Z,17.26
2023-05-10T21:10:43.202Z,17.28
2023-05-10T21:13:12.924Z,17.29
2023-05-10T21:15:49.080Z,17.31
2023-05-10T21:18:38.336Z,17.24
2023-05-10T21:21:29.925Z,17.28
2023-05-10T21:24:16.657Z,17.30
2023-05-10T21:26:57.298Z,17.29
2023-05-10T21:29:49.172Z,17.31
2023-05-10T21:32:31.839Z,17.31
2023-05-10T21:35:30.438Z,17.26
2023-05-10T21:38:08.639Z,17.14
2023-05-10T21:40:50.523Z,17.14
2023-05-10T21:43:52.275Z,17.07
2023-05-10T21:46:44.200Z,17.03
2023-05-10T21:49:21.105Z,17.05
2023-05-10T21:51:53.979Z,17.06
2023-05-10T21:54:48.677Z,17.08
2023-05-10T21:57:41.363Z,17.07
2023-05-10T22:00:41.354Z,17.15
2023-05-10T22:03:23.024Z,17.18
2023-05-10T22:05:59.225Z,17.22
2023-05-10T22:09:19.679Z,17.26
2023-05-10T22:11:54.519Z,17.23
2023-05-10T22:14:32.280Z,17.23
2023-05-10T22:20:31.489Z,17.14
2023-05-10T22:23:31.241Z,17.18
2023-05-10T22:26:10.067Z,17.19
2023-05-10T22:32:00.432Z,17.18
2023-05-10T22:34:53.958Z,17.22
2023-05-10T22:37:50.672Z,17.14
2023-05-10T22:40:25.533Z,17.16
2023-05-10T22:46:13.315Z,17.16
2023-05-10T22:49:06.166Z,17.08
2023-05-10T22:51:52.714Z,17.11
2023-05-10T22:54:52.778Z,17.10
2023-05-10T22:57:43.867Z,17.11
2023-05-10T23:00:28.128Z,17.10
2023-05-10T23:03:28.159Z,17.09
2023-05-10T23:06:33.544Z,17.06
2023-05-10T23:09:09.140Z,17.05
2023-05-10T23:11:51.811Z,17.05
2023-05-10T23:15:03.419Z,17.08
2023-05-10T23:17:51.913Z,17.10
2023-05-10T23:20:43.964Z,17.11
2023-05-10T23:23:38.825Z,17.12
2023-05-10T23:26:28.846Z,17.12
2023-05-10T23:29:21.608Z,17.10
2023-05-10T23:32:03.501Z,17.09
2023-05-10T23:35:05.476Z,17.12
2023-05-10T23:37:45.761Z,17.12
2023-05-10T23:43:16.702Z,17.18
2023-05-10T23:46:04.541Z,17.23
2023-05-10T23:48:58.024Z,17.20
2023-05-10T23:51:51.076Z,17.18
2023-05-10T23:54:45.874Z,17.19
2023-05-10T23:57:43.877Z,17.18
